sensor_id;sensor_type;location;lat;lon;timestamp;temperature;humidity
17146;DHT22;8688;54.444;18.444;2023-04-25T00:00:33;11.40;99.90
17146;DHT22;8688;54.444;18.444;2023-04-25T00:03:01;11.40;99.90
17146;DHT22;8688;54.444;18.444;2023-04-25T00:05:30;11.30;99.90
17146;DHT22;8688;54.444;18.444;2023-04-25T00:07:57;11.30;99.90
17146;DHT22;8688;54.444;18.444;2023-04-25T00:10:25;11.30;99.90
17146;DHT22;8688;54.444;18.444;2023-04-25T00:12:53;11.30;99.90
17146;DHT22;8688;54.444;18.444;2023-04-25T00:15:21;11.30;99.90
17146;DHT22;8688;54.444;18.444;2023-04-25T00:17:48;11.30;99.90
17146;DHT22;8688;54.444;18.444;2023-04-25T00:20:18;11.30;99.90
17146;DHT22;8688;54.444;18.444;2023-04-25T00:22:47;11.30;99.90
17146;DHT22;8688;54.444;18.444;2023-04-25T00:25:15;11.30;99.90
17146;DHT22;8688;54.444;18.444;2023-04-25T00:27:42;11.20;99.90
17146;DHT22;8688;54.444;18.444;2023-04-25T00:30:11;11.30;99.90
17146;DHT22;8688;54.444;18.444;2023-04-25T00:32:38;11.20;99.90
17146;DHT22;8688;54.444;18.444;2023-04-25T00:35:06;11.30;99.90
17146;DHT22;8688;54.444;18.444;2023-04-25T00:37:34;11.20;99.90
17146;DHT22;8688;54.444;18.444;2023-04-25T00:40:05;11.30;99.90
17146;DHT22;8688;54.444;18.444;2023-04-25T00:42:35;11.30;99.90
17146;DHT22;8688;54.444;18.444;2023-04-25T00:45:05;11.30;99.90
17146;DHT22;8688;54.444;18.444;2023-04-25T00:47:33;11.20;99.90
17146;DHT22;8688;54.444;18.444;2023-04-25T00:50:02;11.20;99.90
17146;DHT22;8688;54.444;18.444;2023-04-25T00:52:29;11.20;99.90
17146;DHT22;8688;54.444;18.444;2023-04-25T00:54:57;11.20;99.90
17146;DHT22;8688;54.444;18.444;2023-04-25T00:57:26;11.20;99.90
17146;DHT22;8688;54.444;18.444;2023-04-25T00:59:54;11.20;99.90
17146;DHT22;8688;54.444;18.444;2023-04-25T01:02:22;11.10;99.90
17146;DHT22;8688;54.444;18.444;2023-04-25T01:04:51;11.10;99.90
17146;DHT22;8688;54.444;18.444;2023-04-25T01:07:18;11.00;99.90
17146;DHT22;8688;54.444;18.444;2023-04-25T01:09:46;11.00;99.90
17146;DHT22;8688;54.444;18.444;2023-04-25T01:12:14;11.00;99.90
17146;DHT22;8688;54.444;18.444;2023-04-25T01:14:43;11.00;99.90
17146;DHT22;8688;54.444;18.444;2023-04-25T01:17:10;11.00;99.90
17146;DHT22;8688;54.444;18.444;2023-04-25T01:19:38;11.10;99.90
17146;DHT22;8688;54.444;18.444;2023-04-25T01:22:07;11.00;99.90
17146;DHT22;8688;54.444;18.444;2023-04-25T01:24:36;11.00;99.90
17146;DHT22;8688;54.444;18.444;2023-04-25T01:27:04;11.10;99.90
17146;DHT22;8688;54.444;18.444;2023-04-25T01:29:32;11.00;99.90
17146;DHT22;8688;54.444;18.444;2023-04-25T01:32:00;11.10;99.90
17146;DHT22;8688;54.444;18.444;2023-04-25T01:34:29;11.00;99.90
17146;DHT22;8688;54.444;18.444;2023-04-25T01:36:56;11.00;99.90
17146;DHT22;8688;54.444;18.444;2023-04-25T01:39:27;11.10;99.90
17146;DHT22;8688;54.444;18.444;2023-04-25T01:41:55;11.10;99.90
17146;DHT22;8688;54.444;18.444;2023-04-25T01:44:24;11.00;99.90
17146;DHT22;8688;54.444;18.444;2023-04-25T01:46:51;11.00;99.90
17146;DHT22;8688;54.444;18.444;2023-04-25T01:49:19;11.10;99.90
17146;DHT22;8688;54.444;18.444;2023-04-25T01:51:46;11.10;99.90
17146;DHT22;8688;54.444;18.444;2023-04-25T01:54:14;11.10;99.90
17146;DHT22;8688;54.444;18.444;2023-04-25T01:56:42;11.00;99.90
17146;DHT22;8688;54.444;18.444;2023-04-25T01:59:10;11.00;99.90
17146;DHT22;8688;54.444;18.444;2023-04-25T02:01:37;11.00;99.90
17146;DHT22;8688;54.444;18.444;2023-04-25T02:04:05;11.00;99.90
17146;DHT22;8688;54.444;18.444;2023-04-25T02:06:32;11.00;99.90
17146;DHT22;8688;54.444;18.444;2023-04-25T02:09:00;11.00;99.90
17146;DHT22;8688;54.444;18.444;2023-04-25T02:11:27;11.00;99.90
17146;DHT22;8688;54.444;18.444;2023-04-25T02:13:56;11.00;99.90
17146;DHT22;8688;54.444;18.444;2023-04-25T02:16:24;11.00;99.90
17146;DHT22;8688;54.444;18.444;2023-04-25T02:18:51;10.90;99.90
17146;DHT22;8688;54.444;18.444;2023-04-25T02:21:19;10.90;99.90
17146;DHT22;8688;54.444;18.444;2023-04-25T02:23:47;10.90;99.90
17146;DHT22;8688;54.444;18.444;2023-04-25T02:26:15;10.90;99.90
17146;DHT22;8688;54.444;18.444;2023-04-25T02:28:42;10.90;99.90
17146;DHT22;8688;54.444;18.444;2023-04-25T02:31:11;10.90;99.90
17146;DHT22;8688;54.444;18.444;2023-04-25T02:33:39;10.90;99.90
17146;DHT22;8688;54.444;18.444;2023-04-25T02:36:07;10.90;99.90
17146;DHT22;8688;54.444;18.444;2023-04-25T02:38:34;10.90;99.90
17146;DHT22;8688;54.444;18.444;2023-04-25T02:41:02;10.90;99.90
17146;DHT22;8688;54.444;18.444;2023-04-25T02:43:29;10.90;99.90
17146;DHT22;8688;54.444;18.444;2023-04-25T02:45:57;10.90;99.90
17146;DHT22;8688;54.444;18.444;2023-04-25T02:48:25;10.90;99.90
17146;DHT22;8688;54.444;18.444;2023-04-25T02:50:54;10.90;99.90
17146;DHT22;8688;54.444;18.444;2023-04-25T02:53:21;10.90;99.90
17146;DHT22;8688;54.444;18.444;2023-04-25T02:55:48;10.80;99.90
17146;DHT22;8688;54.444;18.444;2023-04-25T02:58:18;10.80;99.90
17146;DHT22;8688;54.444;18.444;2023-04-25T03:00:45;10.80;99.90
17146;DHT22;8688;54.444;18.444;2023-04-25T03:03:13;10.80;99.90
17146;DHT22;8688;54.444;18.444;2023-04-25T03:05:44;10.80;99.90
17146;DHT22;8688;54.444;18.444;2023-04-25T03:08:12;10.80;99.90
17146;DHT22;8688;54.444;18.444;2023-04-25T03:10:40;10.80;99.90
17146;DHT22;8688;54.444;18.444;2023-04-25T03:13:07;10.80;99.90
17146;DHT22;8688;54.444;18.444;2023-04-25T03:15:35;10.80;99.90
17146;DHT22;8688;54.444;18.444;2023-04-25T03:18:03;10.70;99.90
17146;DHT22;8688;54.444;18.444;2023-04-25T03:20:31;10.50;99.90
17146;DHT22;8688;54.444;18.444;2023-04-25T03:23:00;10.30;99.90
17146;DHT22;8688;54.444;18.444;2023-04-25T03:25:27;10.10;99.90
17146;DHT22;8688;54.444;18.444;2023-04-25T03:27:55;9.90;99.90
17146;DHT22;8688;54.444;18.444;2023-04-25T03:30:22;9.80;99.90
17146;DHT22;8688;54.444;18.444;2023-04-25T03:32:49;9.70;99.90
17146;DHT22;8688;54.444;18.444;2023-04-25T03:35:17;9.60;99.90
17146;DHT22;8688;54.444;18.444;2023-04-25T03:37:44;9.50;99.90
17146;DHT22;8688;54.444;18.444;2023-04-25T03:40:13;9.40;99.90
17146;DHT22;8688;54.444;18.444;2023-04-25T03:42:41;9.30;99.90
17146;DHT22;8688;54.444;18.444;2023-04-25T03:45:09;9.30;99.90
17146;DHT22;8688;54.444;18.444;2023-04-25T03:47:36;9.20;99.90
17146;DHT22;8688;54.444;18.444;2023-04-25T03:50:05;9.20;99.90
17146;DHT22;8688;54.444;18.444;2023-04-25T03:52:32;9.10;99.90
17146;DHT22;8688;54.444;18.444;2023-04-25T03:55:00;9.00;99.90
17146;DHT22;8688;54.444;18.444;2023-04-25T03:57:29;9.00;99.90
17146;DHT22;8688;54.444;18.444;2023-04-25T03:59:56;9.00;99.90
17146;DHT22;8688;54.444;18.444;2023-04-25T04:02:24;8.90;99.90
17146;DHT22;8688;54.444;18.444;2023-04-25T04:04:51;8.90;99.90
17146;DHT22;8688;54.444;18.444;2023-04-25T04:07:19;8.90;99.90
17146;DHT22;8688;54.444;18.444;2023-04-25T04:09:46;8.90;99.90
17146;DHT22;8688;54.444;18.444;2023-04-25T04:12:13;8.80;99.90
17146;DHT22;8688;54.444;18.444;2023-04-25T04:14:42;8.90;99.90
17146;DHT22;8688;54.444;18.444;2023-04-25T04:17:10;8.90;99.90
17146;DHT22;8688;54.444;18.444;2023-04-25T04:19:37;8.90;99.90
17146;DHT22;8688;54.444;18.444;2023-04-25T04:22:04;8.80;99.90
17146;DHT22;8688;54.444;18.444;2023-04-25T04:24:32;8.80;99.90
17146;DHT22;8688;54.444;18.444;2023-04-25T04:26:59;8.80;99.90
17146;DHT22;8688;54.444;18.444;2023-04-25T04:29:27;8.80;99.90
17146;DHT22;8688;54.444;18.444;2023-04-25T04:31:56;8.80;99.90
17146;DHT22;8688;54.444;18.444;2023-04-25T04:34:23;8.80;99.90
17146;DHT22;8688;54.444;18.444;2023-04-25T04:36:52;8.70;99.90
17146;DHT22;8688;54.444;18.444;2023-04-25T04:39:20;8.80;99.90
17146;DHT22;8688;54.444;18.444;2023-04-25T04:41:48;8.70;99.90
17146;DHT22;8688;54.444;18.444;2023-04-25T04:44:16;8.80;99.90
17146;DHT22;8688;54.444;18.444;2023-04-25T04:46:44;8.80;99.90
17146;DHT22;8688;54.444;18.444;2023-04-25T04:49:14;8.70;99.90
17146;DHT22;8688;54.444;18.444;2023-04-25T04:51:41;8.70;99.90
17146;DHT22;8688;54.444;18.444;2023-04-25T04:54:12;8.80;99.90
17146;DHT22;8688;54.444;18.444;2023-04-25T04:56:40;8.80;99.90
17146;DHT22;8688;54.444;18.444;2023-04-25T04:59:09;8.80;99.90
17146;DHT22;8688;54.444;18.444;2023-04-25T05:01:36;8.80;99.90
17146;DHT22;8688;54.444;18.444;2023-04-25T05:04:05;8.80;99.90
17146;DHT22;8688;54.444;18.444;2023-04-25T05:06:34;8.80;99.90
17146;DHT22;8688;54.444;18.444;2023-04-25T05:09:02;8.80;99.90
17146;DHT22;8688;54.444;18.444;2023-04-25T05:11:29;8.80;99.90
17146;DHT22;8688;54.444;18.444;2023-04-25T05:13:57;8.80;99.90
17146;DHT22;8688;54.444;18.444;2023-04-25T05:16:24;8.80;99.90
17146;DHT22;8688;54.444;18.444;2023-04-25T05:18:51;8.80;99.90
17146;DHT22;8688;54.444;18.444;2023-04-25T05:24:15;8.80;99.90
17146;DHT22;8688;54.444;18.444;2023-04-25T05:26:55;8.90;99.90
17146;DHT22;8688;54.444;18.444;2023-04-25T05:29:40;8.80;99.90
17146;DHT22;8688;54.444;18.444;2023-04-25T05:32:08;8.80;99.90
17146;DHT22;8688;54.444;18.444;2023-04-25T05:34:35;8.80;99.90
17146;DHT22;8688;54.444;18.444;2023-04-25T05:37:03;8.90;99.90
17146;DHT22;8688;54.444;18.444;2023-04-25T05:39:41;8.90;99.90
17146;DHT22;8688;54.444;18.444;2023-04-25T05:42:35;8.90;99.90
17146;DHT22;8688;54.444;18.444;2023-04-25T05:45:03;8.90;99.90
17146;DHT22;8688;54.444;18.444;2023-04-25T05:47:30;8.90;99.90
17146;DHT22;8688;54.444;18.444;2023-04-25T05:49:58;8.90;99.90
17146;DHT22;8688;54.444;18.444;2023-04-25T05:52:25;8.80;99.90
17146;DHT22;8688;54.444;18.444;2023-04-25T05:54:54;8.70;99.90
17146;DHT22;8688;54.444;18.444;2023-04-25T05:57:25;8.60;99.90
17146;DHT22;8688;54.444;18.444;2023-04-25T05:59:53;8.60;99.90
17146;DHT22;8688;54.444;18.444;2023-04-25T06:02:21;8.60;99.90
17146;DHT22;8688;54.444;18.444;2023-04-25T06:04:49;8.50;99.90
17146;DHT22;8688;54.444;18.444;2023-04-25T06:07:17;8.50;99.90
17146;DHT22;8688;54.444;18.444;2023-04-25T06:09:45;8.50;99.90
17146;DHT22;8688;54.444;18.444;2023-04-25T06:12:14;8.50;99.90
17146;DHT22;8688;54.444;18.444;2023-04-25T06:14:42;8.40;99.90
17146;DHT22;8688;54.444;18.444;2023-04-25T06:17:09;8.40;99.90
17146;DHT22;8688;54.444;18.444;2023-04-25T06:19:37;8.30;99.90
17146;DHT22;8688;54.444;18.444;2023-04-25T06:22:04;8.30;99.90
17146;DHT22;8688;54.444;18.444;2023-04-25T06:25:03;8.20;99.90
17146;DHT22;8688;54.444;18.444;2023-04-25T06:27:32;8.20;99.90
17146;DHT22;8688;54.444;18.444;2023-04-25T06:30:00;8.20;99.90
17146;DHT22;8688;54.444;18.444;2023-04-25T06:32:27;8.10;99.90
17146;DHT22;8688;54.444;18.444;2023-04-25T06:34:55;8.10;99.90
17146;DHT22;8688;54.444;18.444;2023-04-25T06:37:23;8.00;99.90
17146;DHT22;8688;54.444;18.444;2023-04-25T06:39:51;8.10;99.90
17146;DHT22;8688;54.444;18.444;2023-04-25T06:42:18;8.10;99.90
17146;DHT22;8688;54.444;18.444;2023-04-25T06:44:47;8.10;99.90
17146;DHT22;8688;54.444;18.444;2023-04-25T06:47:14;8.10;99.90
17146;DHT22;8688;54.444;18.444;2023-04-25T06:49:42;8.20;99.90
17146;DHT22;8688;54.444;18.444;2023-04-25T06:52:09;8.20;99.90
17146;DHT22;8688;54.444;18.444;2023-04-25T06:54:37;8.20;99.90
17146;DHT22;8688;54.444;18.444;2023-04-25T06:57:05;8.20;99.90
17146;DHT22;8688;54.444;18.444;2023-04-25T06:59:32;8.20;99.90
17146;DHT22;8688;54.444;18.444;2023-04-25T07:02:01;8.20;99.90
17146;DHT22;8688;54.444;18.444;2023-04-25T07:04:29;8.30;99.90
17146;DHT22;8688;54.444;18.444;2023-04-25T07:07:02;8.30;99.90
17146;DHT22;8688;54.444;18.444;2023-04-25T07:09:45;8.30;99.90
17146;DHT22;8688;54.444;18.444;2023-04-25T07:12:12;8.40;99.90
17146;DHT22;8688;54.444;18.444;2023-04-25T07:14:40;8.40;99.90
17146;DHT22;8688;54.444;18.444;2023-04-25T07:17:09;8.40;99.90
17146;DHT22;8688;54.444;18.444;2023-04-25T07:19:45;8.40;99.90
17146;DHT22;8688;54.444;18.444;2023-04-25T07:22:27;8.40;99.90
17146;DHT22;8688;54.444;18.444;2023-04-25T07:24:54;8.50;99.90
17146;DHT22;8688;54.444;18.444;2023-04-25T07:27:25;8.50;99.90
17146;DHT22;8688;54.444;18.444;2023-04-25T07:29:52;8.60;99.90
17146;DHT22;8688;54.444;18.444;2023-04-25T07:32:21;8.60;99.90
17146;DHT22;8688;54.444;18.444;2023-04-25T07:34:48;8.70;99.90
17146;DHT22;8688;54.444;18.444;2023-04-25T07:37:17;8.80;99.90
17146;DHT22;8688;54.444;18.444;2023-04-25T07:39:45;8.90;99.90
17146;DHT22;8688;54.444;18.444;2023-04-25T07:42:25;9.00;99.90
17146;DHT22;8688;54.444;18.444;2023-04-25T07:45:10;9.10;41.10
17146;DHT22;8688;54.444;18.444;2023-04-25T07:48:05;9.30;37.90
17146;DHT22;8688;54.444;18.444;2023-04-25T07:53:40;9.60;30.80
17146;DHT22;8688;54.444;18.444;2023-04-25T07:56:08;9.80;34.40
17146;DHT22;8688;54.444;18.444;2023-04-25T07:58:35;9.90;28.50
17146;DHT22;8688;54.444;18.444;2023-04-25T08:01:03;10.10;26.20
17146;DHT22;8688;54.444;18.444;2023-04-25T08:03:32;10.10;25.80
17146;DHT22;8688;54.444;18.444;2023-04-25T08:05:59;10.10;25.30
17146;DHT22;8688;54.444;18.444;2023-04-25T08:08:26;10.10;26.00
17146;DHT22;8688;54.444;18.444;2023-04-25T08:10:54;10.20;28.40
17146;DHT22;8688;54.444;18.444;2023-04-25T08:13:21;10.20;28.60
17146;DHT22;8688;54.444;18.444;2023-04-25T08:15:49;10.10;27.10
17146;DHT22;8688;54.444;18.444;2023-04-25T08:18:16;10.10;28.00
17146;DHT22;8688;54.444;18.444;2023-04-25T08:20:45;10.00;30.10
17146;DHT22;8688;54.444;18.444;2023-04-25T08:23:13;10.00;28.20
17146;DHT22;8688;54.444;18.444;2023-04-25T08:25:40;10.10;27.90
17146;DHT22;8688;54.444;18.444;2023-04-25T08:28:08;10.20;27.40
17146;DHT22;8688;54.444;18.444;2023-04-25T08:30:36;10.20;27.80
17146;DHT22;8688;54.444;18.444;2023-04-25T08:33:03;10.20;27.20
17146;DHT22;8688;54.444;18.444;2023-04-25T08:35:31;10.20;27.70
17146;DHT22;8688;54.444;18.444;2023-04-25T08:38:00;10.20;27.20
17146;DHT22;8688;54.444;18.444;2023-04-25T08:40:28;10.30;27.40
17146;DHT22;8688;54.444;18.444;2023-04-25T08:42:57;10.30;27.50
17146;DHT22;8688;54.444;18.444;2023-04-25T08:45:26;10.30;27.70
17146;DHT22;8688;54.444;18.444;2023-04-25T08:47:54;10.40;27.40
17146;DHT22;8688;54.444;18.444;2023-04-25T08:50:23;10.40;27.60
17146;DHT22;8688;54.444;18.444;2023-04-25T08:52:53;10.60;28.10
17146;DHT22;8688;54.444;18.444;2023-04-25T08:55:23;10.60;28.00
17146;DHT22;8688;54.444;18.444;2023-04-25T08:57:52;10.70;28.60
17146;DHT22;8688;54.444;18.444;2023-04-25T09:00:22;10.70;28.20
17146;DHT22;8688;54.444;18.444;2023-04-25T09:02:49;10.70;29.20
17146;DHT22;8688;54.444;18.444;2023-04-25T09:05:17;10.70;28.90
17146;DHT22;8688;54.444;18.444;2023-04-25T09:07:45;10.50;29.10
17146;DHT22;8688;54.444;18.444;2023-04-25T09:10:13;10.40;27.80
17146;DHT22;8688;54.444;18.444;2023-04-25T09:12:42;10.50;28.00
17146;DHT22;8688;54.444;18.444;2023-04-25T09:15:11;10.60;27.80
17146;DHT22;8688;54.444;18.444;2023-04-25T09:17:41;10.60;27.40
17146;DHT22;8688;54.444;18.444;2023-04-25T09:20:12;10.70;27.20
17146;DHT22;8688;54.444;18.444;2023-04-25T09:22:39;10.80;26.60
17146;DHT22;8688;54.444;18.444;2023-04-25T09:25:09;10.80;27.70
17146;DHT22;8688;54.444;18.444;2023-04-25T09:27:50;10.90;27.60
17146;DHT22;8688;54.444;18.444;2023-04-25T09:30:19;11.00;26.70
17146;DHT22;8688;54.444;18.444;2023-04-25T09:32:56;11.00;27.80
17146;DHT22;8688;54.444;18.444;2023-04-25T09:35:24;11.20;29.10
17146;DHT22;8688;54.444;18.444;2023-04-25T09:37:52;11.30;29.90
17146;DHT22;8688;54.444;18.444;2023-04-25T09:40:32;11.40;32.80
17146;DHT22;8688;54.444;18.444;2023-04-25T09:43:09;11.40;35.90
17146;DHT22;8688;54.444;18.444;2023-04-25T09:45:41;11.40;35.30
17146;DHT22;8688;54.444;18.444;2023-04-25T09:48:11;11.30;35.40
17146;DHT22;8688;54.444;18.444;2023-04-25T09:50:45;11.10;34.30
17146;DHT22;8688;54.444;18.444;2023-04-25T09:53:19;11.00;33.80
17146;DHT22;8688;54.444;18.444;2023-04-25T09:55:47;11.00;34.40
17146;DHT22;8688;54.444;18.444;2023-04-25T09:58:16;11.00;34.80
17146;DHT22;8688;54.444;18.444;2023-04-25T10:00:44;10.90;34.60
17146;DHT22;8688;54.444;18.444;2023-04-25T10:03:12;11.00;36.00
17146;DHT22;8688;54.444;18.444;2023-04-25T10:05:42;11.10;36.50
17146;DHT22;8688;54.444;18.444;2023-04-25T10:08:11;11.20;35.70
17146;DHT22;8688;54.444;18.444;2023-04-25T10:10:40;11.30;35.70
17146;DHT22;8688;54.444;18.444;2023-04-25T10:13:08;11.30;36.60
17146;DHT22;8688;54.444;18.444;2023-04-25T10:15:37;11.10;36.60
17146;DHT22;8688;54.444;18.444;2023-04-25T10:18:06;10.90;36.20
17146;DHT22;8688;54.444;18.444;2023-04-25T10:20:33;10.70;36.70
17146;DHT22;8688;54.444;18.444;2023-04-25T10:23:12;10.50;37.00
17146;DHT22;8688;54.444;18.444;2023-04-25T10:25:41;10.40;36.60
17146;DHT22;8688;54.444;18.444;2023-04-25T10:28:09;10.50;37.10
17146;DHT22;8688;54.444;18.444;2023-04-25T10:33:32;10.50;35.30
17146;DHT22;8688;54.444;18.444;2023-04-25T10:36:09;10.60;34.90
17146;DHT22;8688;54.444;18.444;2023-04-25T10:38:37;10.60;35.10
17146;DHT22;8688;54.444;18.444;2023-04-25T10:41:05;10.70;35.00
17146;DHT22;8688;54.444;18.444;2023-04-25T10:43:50;10.70;35.20
17146;DHT22;8688;54.444;18.444;2023-04-25T10:46:54;10.80;35.10
17146;DHT22;8688;54.444;18.444;2023-04-25T10:49:33;10.90;35.50
17146;DHT22;8688;54.444;18.444;2023-04-25T10:52:15;11.10;33.20
17146;DHT22;8688;54.444;18.444;2023-04-25T10:54:46;11.20;34.90
17146;DHT22;8688;54.444;18.444;2023-04-25T10:57:36;11.20;34.50
17146;DHT22;8688;54.444;18.444;2023-04-25T11:00:10;11.20;36.20
17146;DHT22;8688;54.444;18.444;2023-04-25T11:02:46;11.20;35.60
17146;DHT22;8688;54.444;18.444;2023-04-25T11:05:23;11.20;35.40
17146;DHT22;8688;54.444;18.444;2023-04-25T11:07:55;11.30;32.70
17146;DHT22;8688;54.444;18.444;2023-04-25T11:10:26;11.30;33.60
17146;DHT22;8688;54.444;18.444;2023-04-25T11:12:54;11.30;34.40
17146;DHT22;8688;54.444;18.444;2023-04-25T11:15:21;11.40;36.70
17146;DHT22;8688;54.444;18.444;2023-04-25T11:17:51;11.50;38.50
17146;DHT22;8688;54.444;18.444;2023-04-25T11:20:18;11.50;38.90
17146;DHT22;8688;54.444;18.444;2023-04-25T11:22:46;11.30;40.70
17146;DHT22;8688;54.444;18.444;2023-04-25T11:25:15;11.20;41.30
17146;DHT22;8688;54.444;18.444;2023-04-25T11:27:52;11.10;41.30
17146;DHT22;8688;54.444;18.444;2023-04-25T11:30:20;10.90;41.60
17146;DHT22;8688;54.444;18.444;2023-04-25T11:32:50;10.80;42.40
17146;DHT22;8688;54.444;18.444;2023-04-25T11:35:18;10.70;41.40
17146;DHT22;8688;54.444;18.444;2023-04-25T11:38:07;10.60;42.70
17146;DHT22;8688;54.444;18.444;2023-04-25T11:43:48;10.40;41.80
17146;DHT22;8688;54.444;18.444;2023-04-25T11:46:41;10.40;41.50
17146;DHT22;8688;54.444;18.444;2023-04-25T11:49:30;10.40;41.40
17146;DHT22;8688;54.444;18.444;2023-04-25T11:51:58;10.30;40.70
17146;DHT22;8688;54.444;18.444;2023-04-25T11:54:25;10.30;41.20
17146;DHT22;8688;54.444;18.444;2023-04-25T11:56:53;10.20;41.60
17146;DHT22;8688;54.444;18.444;2023-04-25T11:59:24;10.20;41.20
17146;DHT22;8688;54.444;18.444;2023-04-25T12:01:53;10.30;41.00
17146;DHT22;8688;54.444;18.444;2023-04-25T12:04:21;10.30;44.50
17146;DHT22;8688;54.444;18.444;2023-04-25T12:06:52;10.20;45.00
17146;DHT22;8688;54.444;18.444;2023-04-25T12:09:24;10.30;45.00
17146;DHT22;8688;54.444;18.444;2023-04-25T12:12:11;10.30;44.30
17146;DHT22;8688;54.444;18.444;2023-04-25T12:14:39;10.20;40.20
17146;DHT22;8688;54.444;18.444;2023-04-25T12:20:09;9.90;38.40
17146;DHT22;8688;54.444;18.444;2023-04-25T12:22:40;10.00;38.10
17146;DHT22;8688;54.444;18.444;2023-04-25T12:25:10;10.10;37.30
17146;DHT22;8688;54.444;18.444;2023-04-25T12:27:39;10.20;37.30
17146;DHT22;8688;54.444;18.444;2023-04-25T12:30:08;10.30;36.50
17146;DHT22;8688;54.444;18.444;2023-04-25T12:32:36;10.40;36.50
17146;DHT22;8688;54.444;18.444;2023-04-25T12:35:05;10.50;37.00
17146;DHT22;8688;54.444;18.444;2023-04-25T12:37:32;10.60;36.30
17146;DHT22;8688;54.444;18.444;2023-04-25T12:40:01;10.50;36.40
17146;DHT22;8688;54.444;18.444;2023-04-25T12:42:30;10.70;37.90
17146;DHT22;8688;54.444;18.444;2023-04-25T12:44:57;10.70;37.10
17146;DHT22;8688;54.444;18.444;2023-04-25T12:47:25;10.80;36.90
17146;DHT22;8688;54.444;18.444;2023-04-25T12:49:52;10.70;37.90
17146;DHT22;8688;54.444;18.444;2023-04-25T12:52:20;10.70;36.80
17146;DHT22;8688;54.444;18.444;2023-04-25T12:54:47;10.70;36.70
17146;DHT22;8688;54.444;18.444;2023-04-25T12:57:16;10.70;37.90
17146;DHT22;8688;54.444;18.444;2023-04-25T12:59:43;10.60;37.20
17146;DHT22;8688;54.444;18.444;2023-04-25T13:02:11;10.70;37.10
17146;DHT22;8688;54.444;18.444;2023-04-25T13:04:38;10.70;37.40
17146;DHT22;8688;54.444;18.444;2023-04-25T13:07:06;10.90;37.80
17146;DHT22;8688;54.444;18.444;2023-04-25T13:09:33;11.10;38.50
17146;DHT22;8688;54.444;18.444;2023-04-25T13:12:00;11.20;38.20
17146;DHT22;8688;54.444;18.444;2023-04-25T13:14:29;11.50;39.40
17146;DHT22;8688;54.444;18.444;2023-04-25T13:16:57;11.50;39.40
17146;DHT22;8688;54.444;18.444;2023-04-25T13:19:24;11.60;42.10
17146;DHT22;8688;54.444;18.444;2023-04-25T13:21:52;11.60;44.10
17146;DHT22;8688;54.444;18.444;2023-04-25T13:24:19;11.70;45.30
17146;DHT22;8688;54.444;18.444;2023-04-25T13:26:46;11.80;46.90
17146;DHT22;8688;54.444;18.444;2023-04-25T13:29:13;12.00;47.40
17146;DHT22;8688;54.444;18.444;2023-04-25T13:31:42;12.10;49.20
17146;DHT22;8688;54.444;18.444;2023-04-25T13:34:10;12.20;52.40
17146;DHT22;8688;54.444;18.444;2023-04-25T13:36:38;12.30;53.60
17146;DHT22;8688;54.444;18.444;2023-04-25T13:39:06;12.40;55.70
17146;DHT22;8688;54.444;18.444;2023-04-25T13:41:33;12.60;55.80
17146;DHT22;8688;54.444;18.444;2023-04-25T13:44:01;12.40;58.00
17146;DHT22;8688;54.444;18.444;2023-04-25T13:46:28;12.30;61.10
17146;DHT22;8688;54.444;18.444;2023-04-25T13:48:57;12.10;62.80
17146;DHT22;8688;54.444;18.444;2023-04-25T13:51:24;12.00;61.60
17146;DHT22;8688;54.444;18.444;2023-04-25T13:53:52;11.90;61.20
17146;DHT22;8688;54.444;18.444;2023-04-25T13:56:19;11.70;59.90
17146;DHT22;8688;54.444;18.444;2023-04-25T13:58:47;11.50;60.00
17146;DHT22;8688;54.444;18.444;2023-04-25T14:01:15;11.30;59.70
17146;DHT22;8688;54.444;18.444;2023-04-25T14:03:42;11.10;59.10
17146;DHT22;8688;54.444;18.444;2023-04-25T14:06:11;10.90;58.10
17146;DHT22;8688;54.444;18.444;2023-04-25T14:08:39;10.60;57.80
17146;DHT22;8688;54.444;18.444;2023-04-25T14:11:07;10.30;56.30
17146;DHT22;8688;54.444;18.444;2023-04-25T14:13:34;10.10;54.30
17146;DHT22;8688;54.444;18.444;2023-04-25T14:16:02;10.00;51.60
17146;DHT22;8688;54.444;18.444;2023-04-25T14:18:30;9.80;51.40
17146;DHT22;8688;54.444;18.444;2023-04-25T14:20:57;9.70;50.70
17146;DHT22;8688;54.444;18.444;2023-04-25T14:23:27;9.60;49.80
17146;DHT22;8688;54.444;18.444;2023-04-25T14:25:54;9.60;50.20
17146;DHT22;8688;54.444;18.444;2023-04-25T14:28:22;9.50;48.00
17146;DHT22;8688;54.444;18.444;2023-04-25T14:30:49;9.50;46.20
17146;DHT22;8688;54.444;18.444;2023-04-25T14:33:16;9.40;47.30
17146;DHT22;8688;54.444;18.444;2023-04-25T14:35:44;9.30;46.50
17146;DHT22;8688;54.444;18.444;2023-04-25T14:38:11;9.20;45.00
17146;DHT22;8688;54.444;18.444;2023-04-25T14:40:40;9.20;44.50
17146;DHT22;8688;54.444;18.444;2023-04-25T14:43:08;9.10;44.40
17146;DHT22;8688;54.444;18.444;2023-04-25T14:45:35;9.10;42.30
17146;DHT22;8688;54.444;18.444;2023-04-25T14:48:06;9.00;43.00
17146;DHT22;8688;54.444;18.444;2023-04-25T14:50:33;9.00;41.90
17146;DHT22;8688;54.444;18.444;2023-04-25T14:53:01;8.90;41.50
17146;DHT22;8688;54.444;18.444;2023-04-25T14:55:29;8.90;42.50
17146;DHT22;8688;54.444;18.444;2023-04-25T14:57:58;8.90;42.10
17146;DHT22;8688;54.444;18.444;2023-04-25T15:00:25;8.90;42.10
17146;DHT22;8688;54.444;18.444;2023-04-25T15:02:53;8.90;41.80
17146;DHT22;8688;54.444;18.444;2023-04-25T15:05:20;8.80;41.60
17146;DHT22;8688;54.444;18.444;2023-04-25T15:07:47;8.80;42.30
17146;DHT22;8688;54.444;18.444;2023-04-25T15:10:17;8.70;41.20
17146;DHT22;8688;54.444;18.444;2023-04-25T15:12:45;8.70;41.10
17146;DHT22;8688;54.444;18.444;2023-04-25T15:15:14;8.70;42.20
17146;DHT22;8688;54.444;18.444;2023-04-25T15:17:42;8.70;41.20
17146;DHT22;8688;54.444;18.444;2023-04-25T15:20:11;8.60;42.00
17146;DHT22;8688;54.444;18.444;2023-04-25T15:22:40;8.50;40.90
17146;DHT22;8688;54.444;18.444;2023-04-25T15:25:08;8.50;40.30
17146;DHT22;8688;54.444;18.444;2023-04-25T15:27:36;8.50;41.60
17146;DHT22;8688;54.444;18.444;2023-04-25T15:30:08;8.50;41.30
17146;DHT22;8688;54.444;18.444;2023-04-25T15:32:38;8.40;40.20
17146;DHT22;8688;54.444;18.444;2023-04-25T15:35:06;8.40;39.90
17146;DHT22;8688;54.444;18.444;2023-04-25T15:37:35;8.40;40.60
17146;DHT22;8688;54.444;18.444;2023-04-25T15:40:04;8.40;39.90
17146;DHT22;8688;54.444;18.444;2023-04-25T15:42:34;8.40;39.80
17146;DHT22;8688;54.444;18.444;2023-04-25T15:45:03;8.40;40.00
17146;DHT22;8688;54.444;18.444;2023-04-25T15:47:30;8.40;40.00
17146;DHT22;8688;54.444;18.444;2023-04-25T15:49:59;8.40;38.90
17146;DHT22;8688;54.444;18.444;2023-04-25T15:52:27;8.40;39.40
17146;DHT22;8688;54.444;18.444;2023-04-25T15:54:54;8.30;39.50
17146;DHT22;8688;54.444;18.444;2023-04-25T15:57:22;8.30;39.90
17146;DHT22;8688;54.444;18.444;2023-04-25T15:59:49;8.30;39.90
17146;DHT22;8688;54.444;18.444;2023-04-25T16:02:17;8.30;39.80
17146;DHT22;8688;54.444;18.444;2023-04-25T16:04:45;8.20;39.50